sensor_id;sensor_type;location;lat;lon;timestamp;temperature;humidity
6538;DHT22;3302;52.508;13.454;2022-07-23T00:01:20;19.80;99.90
6538;DHT22;3302;52.508;13.454;2022-07-23T00:03:46;19.60;99.90
6538;DHT22;3302;52.508;13.454;2022-07-23T00:06:11;19.60;99.90
6538;DHT22;3302;52.508;13.454;2022-07-23T00:08:37;19.60;99.90
6538;DHT22;3302;52.508;13.454;2022-07-23T00:11:03;19.50;99.90
6538;DHT22;3302;52.508;13.454;2022-07-23T00:13:29;19.40;99.90
6538;DHT22;3302;52.508;13.454;2022-07-23T00:15:55;19.50;99.90
6538;DHT22;3302;52.508;13.454;2022-07-23T00:18:21;19.50;99.90
6538;DHT22;3302;52.508;13.454;2022-07-23T00:20:47;19.40;99.90
6538;DHT22;3302;52.508;13.454;2022-07-23T00:23:13;19.50;99.90
6538;DHT22;3302;52.508;13.454;2022-07-23T00:25:39;19.40;99.90
6538;DHT22;3302;52.508;13.454;2022-07-23T00:28:05;19.40;99.90
6538;DHT22;3302;52.508;13.454;2022-07-23T00:30:31;19.30;99.90
6538;DHT22;3302;52.508;13.454;2022-07-23T00:33:02;19.20;99.90
6538;DHT22;3302;52.508;13.454;2022-07-23T00:35:32;19.10;99.90
6538;DHT22;3302;52.508;13.454;2022-07-23T00:37:59;19.10;99.90
6538;DHT22;3302;52.508;13.454;2022-07-23T00:40:26;19.20;99.90
6538;DHT22;3302;52.508;13.454;2022-07-23T00:42:52;19.30;99.90
6538;DHT22;3302;52.508;13.454;2022-07-23T00:45:19;19.30;99.90
6538;DHT22;3302;52.508;13.454;2022-07-23T00:47:45;19.30;99.90
6538;DHT22;3302;52.508;13.454;2022-07-23T00:50:11;19.30;99.90
6538;DHT22;3302;52.508;13.454;2022-07-23T00:52:38;19.30;99.90
6538;DHT22;3302;52.508;13.454;2022-07-23T00:55:05;19.30;99.90
6538;DHT22;3302;52.508;13.454;2022-07-23T00:57:31;19.30;99.90
6538;DHT22;3302;52.508;13.454;2022-07-23T00:59:57;19.30;99.90
6538;DHT22;3302;52.508;13.454;2022-07-23T01:02:25;19.00;99.90
6538;DHT22;3302;52.508;13.454;2022-07-23T01:04:51;19.10;99.90
6538;DHT22;3302;52.508;13.454;2022-07-23T01:07:18;19.10;99.90
6538;DHT22;3302;52.508;13.454;2022-07-23T01:09:44;19.10;99.90
6538;DHT22;3302;52.508;13.454;2022-07-23T01:12:11;19.10;99.90
6538;DHT22;3302;52.508;13.454;2022-07-23T01:14:37;19.10;99.90
6538;DHT22;3302;52.508;13.454;2022-07-23T01:17:03;19.10;99.90
6538;DHT22;3302;52.508;13.454;2022-07-23T01:19:29;19.00;99.90
6538;DHT22;3302;52.508;13.454;2022-07-23T01:21:57;18.80;99.90
6538;DHT22;3302;52.508;13.454;2022-07-23T01:24:23;18.80;99.90
6538;DHT22;3302;52.508;13.454;2022-07-23T01:26:49;18.70;99.90
6538;DHT22;3302;52.508;13.454;2022-07-23T01:29:16;18.70;99.90
6538;DHT22;3302;52.508;13.454;2022-07-23T01:31:43;18.80;99.90
6538;DHT22;3302;52.508;13.454;2022-07-23T01:34:09;18.70;99.90
6538;DHT22;3302;52.508;13.454;2022-07-23T01:36:35;18.90;99.90
6538;DHT22;3302;52.508;13.454;2022-07-23T01:39:03;19.00;99.90
6538;DHT22;3302;52.508;13.454;2022-07-23T01:41:29;18.90;99.90
6538;DHT22;3302;52.508;13.454;2022-07-23T01:43:55;18.90;99.90
6538;DHT22;3302;52.508;13.454;2022-07-23T01:46:20;18.90;99.90
6538;DHT22;3302;52.508;13.454;2022-07-23T01:48:46;18.80;99.90
6538;DHT22;3302;52.508;13.454;2022-07-23T01:51:12;18.60;99.90
6538;DHT22;3302;52.508;13.454;2022-07-23T01:53:38;18.80;99.90
6538;DHT22;3302;52.508;13.454;2022-07-23T01:56:04;18.70;99.90
6538;DHT22;3302;52.508;13.454;2022-07-23T01:58:30;18.70;99.90
6538;DHT22;3302;52.508;13.454;2022-07-23T02:00:56;18.60;99.90
6538;DHT22;3302;52.508;13.454;2022-07-23T02:03:22;18.70;99.90
6538;DHT22;3302;52.508;13.454;2022-07-23T02:05:48;18.50;99.90
6538;DHT22;3302;52.508;13.454;2022-07-23T02:08:14;18.50;99.90
6538;DHT22;3302;52.508;13.454;2022-07-23T02:10:40;18.30;99.90
6538;DHT22;3302;52.508;13.454;2022-07-23T02:13:06;18.20;99.90
6538;DHT22;3302;52.508;13.454;2022-07-23T02:15:32;18.40;99.90
6538;DHT22;3302;52.508;13.454;2022-07-23T02:17:58;18.50;99.90
6538;DHT22;3302;52.508;13.454;2022-07-23T02:20:24;18.30;99.90
6538;DHT22;3302;52.508;13.454;2022-07-23T02:22:50;18.40;99.90
6538;DHT22;3302;52.508;13.454;2022-07-23T02:25:16;18.30;99.90
6538;DHT22;3302;52.508;13.454;2022-07-23T02:27:42;18.40;99.90
6538;DHT22;3302;52.508;13.454;2022-07-23T02:30:09;18.40;99.90
6538;DHT22;3302;52.508;13.454;2022-07-23T02:32:36;18.50;99.90
6538;DHT22;3302;52.508;13.454;2022-07-23T02:35:03;18.30;99.90
6538;DHT22;3302;52.508;13.454;2022-07-23T02:37:29;18.10;99.90
6538;DHT22;3302;52.508;13.454;2022-07-23T02:39:55;17.90;99.90
6538;DHT22;3302;52.508;13.454;2022-07-23T02:42:21;17.80;99.90
6538;DHT22;3302;52.508;13.454;2022-07-23T02:44:47;17.90;99.90
6538;DHT22;3302;52.508;13.454;2022-07-23T02:47:12;17.90;99.90
6538;DHT22;3302;52.508;13.454;2022-07-23T02:49:38;18.00;99.90
6538;DHT22;3302;52.508;13.454;2022-07-23T02:52:04;18.00;99.90
6538;DHT22;3302;52.508;13.454;2022-07-23T02:54:30;18.00;99.90
6538;DHT22;3302;52.508;13.454;2022-07-23T02:56:55;17.80;99.90
6538;DHT22;3302;52.508;13.454;2022-07-23T02:59:21;18.10;99.90
6538;DHT22;3302;52.508;13.454;2022-07-23T03:01:47;18.20;99.90
6538;DHT22;3302;52.508;13.454;2022-07-23T03:04:13;18.20;99.90
6538;DHT22;3302;52.508;13.454;2022-07-23T03:06:39;18.00;99.90
6538;DHT22;3302;52.508;13.454;2022-07-23T03:09:05;17.70;99.90
6538;DHT22;3302;52.508;13.454;2022-07-23T03:11:31;17.70;99.90
6538;DHT22;3302;52.508;13.454;2022-07-23T03:13:57;17.80;99.90
6538;DHT22;3302;52.508;13.454;2022-07-23T03:16:23;17.80;99.90
6538;DHT22;3302;52.508;13.454;2022-07-23T03:18:48;18.00;99.90
6538;DHT22;3302;52.508;13.454;2022-07-23T03:21:14;17.90;99.90
6538;DHT22;3302;52.508;13.454;2022-07-23T03:23:40;17.90;99.90
6538;DHT22;3302;52.508;13.454;2022-07-23T03:26:06;17.80;99.90
6538;DHT22;3302;52.508;13.454;2022-07-23T03:28:32;17.50;99.90
6538;DHT22;3302;52.508;13.454;2022-07-23T03:30:57;17.50;99.90
6538;DHT22;3302;52.508;13.454;2022-07-23T03:33:23;17.50;99.90
6538;DHT22;3302;52.508;13.454;2022-07-23T03:35:49;17.20;99.90
6538;DHT22;3302;52.508;13.454;2022-07-23T03:38:16;17.00;99.90
6538;DHT22;3302;52.508;13.454;2022-07-23T03:40:42;17.30;99.90
6538;DHT22;3302;52.508;13.454;2022-07-23T03:43:08;17.10;99.90
6538;DHT22;3302;52.508;13.454;2022-07-23T03:45:34;17.10;99.90
6538;DHT22;3302;52.508;13.454;2022-07-23T03:48:00;17.10;99.90
6538;DHT22;3302;52.508;13.454;2022-07-23T03:50:25;16.90;99.90
6538;DHT22;3302;52.508;13.454;2022-07-23T03:52:51;16.90;99.90
6538;DHT22;3302;52.508;13.454;2022-07-23T03:55:17;16.70;99.90
6538;DHT22;3302;52.508;13.454;2022-07-23T03:57:43;16.90;99.90
6538;DHT22;3302;52.508;13.454;2022-07-23T04:00:10;16.90;99.90
6538;DHT22;3302;52.508;13.454;2022-07-23T04:02:37;16.80;99.90
6538;DHT22;3302;52.508;13.454;2022-07-23T04:05:04;16.90;99.90
6538;DHT22;3302;52.508;13.454;2022-07-23T04:07:30;17.00;99.90
6538;DHT22;3302;52.508;13.454;2022-07-23T04:09:56;16.90;99.90
6538;DHT22;3302;52.508;13.454;2022-07-23T04:12:22;17.00;99.90
6538;DHT22;3302;52.508;13.454;2022-07-23T04:14:48;17.00;99.90
6538;DHT22;3302;52.508;13.454;2022-07-23T04:17:13;17.10;99.90
6538;DHT22;3302;52.508;13.454;2022-07-23T04:19:39;17.10;99.90
6538;DHT22;3302;52.508;13.454;2022-07-23T04:22:07;17.00;99.90
6538;DHT22;3302;52.508;13.454;2022-07-23T04:24:33;16.90;99.90
6538;DHT22;3302;52.508;13.454;2022-07-23T04:27:00;17.10;99.90
6538;DHT22;3302;52.508;13.454;2022-07-23T04:29:26;17.10;99.90
6538;DHT22;3302;52.508;13.454;2022-07-23T04:31:51;17.00;99.90
6538;DHT22;3302;52.508;13.454;2022-07-23T04:34:17;16.80;99.90
6538;DHT22;3302;52.508;13.454;2022-07-23T04:36:43;17.00;99.90
6538;DHT22;3302;52.508;13.454;2022-07-23T04:39:10;17.20;99.90
6538;DHT22;3302;52.508;13.454;2022-07-23T04:41:36;17.20;99.90
6538;DHT22;3302;52.508;13.454;2022-07-23T04:44:02;16.60;99.90
6538;DHT22;3302;52.508;13.454;2022-07-23T04:46:28;15.40;99.90
6538;DHT22;3302;52.508;13.454;2022-07-23T04:48:54;14.80;99.90
6538;DHT22;3302;52.508;13.454;2022-07-23T04:51:20;14.50;99.90
6538;DHT22;3302;52.508;13.454;2022-07-23T04:53:46;14.40;99.90
6538;DHT22;3302;52.508;13.454;2022-07-23T04:56:11;14.60;99.90
6538;DHT22;3302;52.508;13.454;2022-07-23T04:58:38;15.00;99.90
6538;DHT22;3302;52.508;13.454;2022-07-23T05:01:04;15.10;99.90
6538;DHT22;3302;52.508;13.454;2022-07-23T05:03:30;14.70;99.90
6538;DHT22;3302;52.508;13.454;2022-07-23T05:05:56;14.80;99.90
6538;DHT22;3302;52.508;13.454;2022-07-23T05:08:21;14.90;99.90
6538;DHT22;3302;52.508;13.454;2022-07-23T05:10:47;15.00;99.90
6538;DHT22;3302;52.508;13.454;2022-07-23T05:13:17;14.70;99.90
6538;DHT22;3302;52.508;13.454;2022-07-23T05:15:43;14.30;99.90
6538;DHT22;3302;52.508;13.454;2022-07-23T05:18:09;14.40;99.90
6538;DHT22;3302;52.508;13.454;2022-07-23T05:20:35;14.20;99.90
6538;DHT22;3302;52.508;13.454;2022-07-23T05:23:01;14.40;99.90
6538;DHT22;3302;52.508;13.454;2022-07-23T05:25:26;14.50;99.90
6538;DHT22;3302;52.508;13.454;2022-07-23T05:27:52;14.40;99.90
6538;DHT22;3302;52.508;13.454;2022-07-23T05:30:18;14.60;99.90
6538;DHT22;3302;52.508;13.454;2022-07-23T05:32:44;14.60;99.90
6538;DHT22;3302;52.508;13.454;2022-07-23T05:35:10;14.70;99.90
6538;DHT22;3302;52.508;13.454;2022-07-23T05:37:36;14.80;99.90
6538;DHT22;3302;52.508;13.454;2022-07-23T05:40:05;14.80;99.90
6538;DHT22;3302;52.508;13.454;2022-07-23T05:42:37;14.90;99.90
6538;DHT22;3302;52.508;13.454;2022-07-23T05:45:04;14.90;99.90
6538;DHT22;3302;52.508;13.454;2022-07-23T05:47:43;15.10;99.90
6538;DHT22;3302;52.508;13.454;2022-07-23T05:50:10;15.20;99.90
6538;DHT22;3302;52.508;13.454;2022-07-23T05:52:37;15.20;99.90
6538;DHT22;3302;52.508;13.454;2022-07-23T05:55:04;15.30;99.90
6538;DHT22;3302;52.508;13.454;2022-07-23T05:57:30;14.90;99.90
6538;DHT22;3302;52.508;13.454;2022-07-23T05:59:56;15.20;99.90
6538;DHT22;3302;52.508;13.454;2022-07-23T06:02:21;15.30;99.90
6538;DHT22;3302;52.508;13.454;2022-07-23T06:04:47;15.40;99.90
6538;DHT22;3302;52.508;13.454;2022-07-23T06:07:13;15.60;99.90
6538;DHT22;3302;52.508;13.454;2022-07-23T06:09:39;15.80;99.90
6538;DHT22;3302;52.508;13.454;2022-07-23T06:12:05;15.80;99.90
6538;DHT22;3302;52.508;13.454;2022-07-23T06:14:31;15.80;99.90
6538;DHT22;3302;52.508;13.454;2022-07-23T06:16:56;15.80;99.90
6538;DHT22;3302;52.508;13.454;2022-07-23T06:19:22;15.90;99.90
6538;DHT22;3302;52.508;13.454;2022-07-23T06:21:48;16.00;99.90
6538;DHT22;3302;52.508;13.454;2022-07-23T06:24:15;15.70;99.90
6538;DHT22;3302;52.508;13.454;2022-07-23T06:26:40;15.70;99.90
6538;DHT22;3302;52.508;13.454;2022-07-23T06:29:06;15.50;99.90
6538;DHT22;3302;52.508;13.454;2022-07-23T06:31:33;15.30;99.90
6538;DHT22;3302;52.508;13.454;2022-07-23T06:33:59;15.20;99.90
6538;DHT22;3302;52.508;13.454;2022-07-23T06:36:24;15.30;99.90
6538;DHT22;3302;52.508;13.454;2022-07-23T06:38:50;15.20;99.90
6538;DHT22;3302;52.508;13.454;2022-07-23T06:41:16;15.30;99.90
6538;DHT22;3302;52.508;13.454;2022-07-23T06:43:42;15.40;99.90
6538;DHT22;3302;52.508;13.454;2022-07-23T06:46:07;15.30;99.90
6538;DHT22;3302;52.508;13.454;2022-07-23T06:48:33;15.20;99.90
6538;DHT22;3302;52.508;13.454;2022-07-23T06:51:02;15.30;99.90
6538;DHT22;3302;52.508;13.454;2022-07-23T06:53:28;15.20;99.90
6538;DHT22;3302;52.508;13.454;2022-07-23T06:55:53;15.10;99.90
6538;DHT22;3302;52.508;13.454;2022-07-23T06:58:19;15.10;99.90
6538;DHT22;3302;52.508;13.454;2022-07-23T07:00:46;15.10;99.90
6538;DHT22;3302;52.508;13.454;2022-07-23T07:03:12;15.00;99.90
6538;DHT22;3302;52.508;13.454;2022-07-23T07:05:37;15.00;99.90
6538;DHT22;3302;52.508;13.454;2022-07-23T07:08:05;15.10;99.90
6538;DHT22;3302;52.508;13.454;2022-07-23T07:10:31;15.30;99.90
6538;DHT22;3302;52.508;13.454;2022-07-23T07:12:57;15.20;99.90
6538;DHT22;3302;52.508;13.454;2022-07-23T07:15:23;15.30;99.90
6538;DHT22;3302;52.508;13.454;2022-07-23T07:17:49;15.10;99.90
6538;DHT22;3302;52.508;13.454;2022-07-23T07:20:14;15.00;99.90
6538;DHT22;3302;52.508;13.454;2022-07-23T07:22:40;15.10;99.90
6538;DHT22;3302;52.508;13.454;2022-07-23T07:25:07;15.10;99.90
6538;DHT22;3302;52.508;13.454;2022-07-23T07:27:33;15.10;99.90
6538;DHT22;3302;52.508;13.454;2022-07-23T07:29:59;15.30;99.90
6538;DHT22;3302;52.508;13.454;2022-07-23T07:32:24;15.30;99.90
6538;DHT22;3302;52.508;13.454;2022-07-23T07:34:50;15.30;99.90
6538;DHT22;3302;52.508;13.454;2022-07-23T07:37:16;15.40;99.90
6538;DHT22;3302;52.508;13.454;2022-07-23T07:39:42;15.70;99.90
6538;DHT22;3302;52.508;13.454;2022-07-23T07:42:08;15.50;99.90
6538;DHT22;3302;52.508;13.454;2022-07-23T07:44:33;15.60;99.90
6538;DHT22;3302;52.508;13.454;2022-07-23T07:46:59;15.80;99.90
6538;DHT22;3302;52.508;13.454;2022-07-23T07:49:25;15.80;99.90
6538;DHT22;3302;52.508;13.454;2022-07-23T07:51:51;15.80;99.90
6538;DHT22;3302;52.508;13.454;2022-07-23T07:54:16;16.00;99.90
6538;DHT22;3302;52.508;13.454;2022-07-23T07:56:42;16.10;99.90
6538;DHT22;3302;52.508;13.454;2022-07-23T07:59:08;16.10;99.90
6538;DHT22;3302;52.508;13.454;2022-07-23T08:01:33;16.10;99.90
6538;DHT22;3302;52.508;13.454;2022-07-23T08:03:59;16.30;99.90
6538;DHT22;3302;52.508;13.454;2022-07-23T08:06:25;16.40;99.90
6538;DHT22;3302;52.508;13.454;2022-07-23T08:08:51;16.40;99.90
6538;DHT22;3302;52.508;13.454;2022-07-23T08:11:16;16.40;99.90
6538;DHT22;3302;52.508;13.454;2022-07-23T08:13:42;16.30;99.90
6538;DHT22;3302;52.508;13.454;2022-07-23T08:16:10;16.50;99.90
6538;DHT22;3302;52.508;13.454;2022-07-23T08:18:36;16.60;99.90
6538;DHT22;3302;52.508;13.454;2022-07-23T08:21:02;16.50;99.90
6538;DHT22;3302;52.508;13.454;2022-07-23T08:23:29;16.60;99.90
6538;DHT22;3302;52.508;13.454;2022-07-23T08:25:55;16.70;99.90
6538;DHT22;3302;52.508;13.454;2022-07-23T08:28:22;17.00;99.90
6538;DHT22;3302;52.508;13.454;2022-07-23T08:30:48;16.90;99.90
6538;DHT22;3302;52.508;13.454;2022-07-23T08:33:16;16.70;99.90
6538;DHT22;3302;52.508;13.454;2022-07-23T08:35:49;17.00;99.90
6538;DHT22;3302;52.508;13.454;2022-07-23T08:38:17;17.30;99.90
6538;DHT22;3302;52.508;13.454;2022-07-23T08:40:48;17.10;99.90
6538;DHT22;3302;52.508;13.454;2022-07-23T08:43:19;17.10;99.90
6538;DHT22;3302;52.508;13.454;2022-07-23T08:45:47;17.10;99.90
6538;DHT22;3302;52.508;13.454;2022-07-23T08:48:23;17.30;99.90
6538;DHT22;3302;52.508;13.454;2022-07-23T08:50:52;17.30;99.90
6538;DHT22;3302;52.508;13.454;2022-07-23T08:53:20;17.40;99.90
6538;DHT22;3302;52.508;13.454;2022-07-23T08:55:48;17.50;99.90
6538;DHT22;3302;52.508;13.454;2022-07-23T08:58:14;17.90;99.90
6538;DHT22;3302;52.508;13.454;2022-07-23T09:00:40;18.10;99.90
6538;DHT22;3302;52.508;13.454;2022-07-23T09:03:06;18.20;99.90
6538;DHT22;3302;52.508;13.454;2022-07-23T09:05:32;18.40;99.90
6538;DHT22;3302;52.508;13.454;2022-07-23T09:15:49;18.40;99.90
6538;DHT22;3302;52.508;13.454;2022-07-23T09:18:15;18.50;99.90
6538;DHT22;3302;52.508;13.454;2022-07-23T09:20:42;18.50;99.90
6538;DHT22;3302;52.508;13.454;2022-07-23T09:23:08;18.90;99.90
6538;DHT22;3302;52.508;13.454;2022-07-23T09:25:34;19.20;99.90
6538;DHT22;3302;52.508;13.454;2022-07-23T09:28:00;19.20;99.90
6538;DHT22;3302;52.508;13.454;2022-07-23T09:30:32;19.00;99.90
6538;DHT22;3302;52.508;13.454;2022-07-23T09:33:13;18.90;99.90
6538;DHT22;3302;52.508;13.454;2022-07-23T09:35:54;18.90;99.90
6538;DHT22;3302;52.508;13.454;2022-07-23T09:38:24;19.00;99.90
6538;DHT22;3302;52.508;13.454;2022-07-23T09:41:09;18.90;99.90
6538;DHT22;3302;52.508;13.454;2022-07-23T09:43:35;19.00;99.90
6538;DHT22;3302;52.508;13.454;2022-07-23T09:46:25;18.80;99.90
6538;DHT22;3302;52.508;13.454;2022-07-23T09:48:52;18.90;99.90
6538;DHT22;3302;52.508;13.454;2022-07-23T09:51:19;18.90;99.90
6538;DHT22;3302;52.508;13.454;2022-07-23T09:53:49;19.00;99.90
6538;DHT22;3302;52.508;13.454;2022-07-23T09:56:16;19.30;99.90
6538;DHT22;3302;52.508;13.454;2022-07-23T09:58:43;19.10;99.90
6538;DHT22;3302;52.508;13.454;2022-07-23T10:01:14;19.00;99.90
6538;DHT22;3302;52.508;13.454;2022-07-23T10:03:41;19.30;99.90
6538;DHT22;3302;52.508;13.454;2022-07-23T10:06:12;19.40;99.90
6538;DHT22;3302;52.508;13.454;2022-07-23T10:08:40;19.40;99.90
6538;DHT22;3302;52.508;13.454;2022-07-23T10:11:09;19.70;99.90
6538;DHT22;3302;52.508;13.454;2022-07-23T10:13:36;19.90;99.90
6538;DHT22;3302;52.508;13.454;2022-07-23T10:16:21;19.90;99.90
6538;DHT22;3302;52.508;13.454;2022-07-23T10:18:47;20.10;99.90
6538;DHT22;3302;52.508;13.454;2022-07-23T10:21:17;20.20;99.90
6538;DHT22;3302;52.508;13.454;2022-07-23T10:23:51;20.00;99.90
6538;DHT22;3302;52.508;13.454;2022-07-23T10:26:41;20.20;99.90
6538;DHT22;3302;52.508;13.454;2022-07-23T10:29:13;20.40;99.90
6538;DHT22;3302;52.508;13.454;2022-07-23T10:32:08;20.20;98.80
6538;DHT22;3302;52.508;13.454;2022-07-23T10:34:44;20.10;99.30
6538;DHT22;3302;52.508;13.454;2022-07-23T10:40:20;20.10;99.40
6538;DHT22;3302;52.508;13.454;2022-07-23T10:42:49;20.00;99.00
6538;DHT22;3302;52.508;13.454;2022-07-23T10:45:35;20.10;99.00
6538;DHT22;3302;52.508;13.454;2022-07-23T10:48:34;20.20;99.30
6538;DHT22;3302;52.508;13.454;2022-07-23T10:51:15;20.10;99.90
6538;DHT22;3302;52.508;13.454;2022-07-23T10:53:54;20.10;99.60
6538;DHT22;3302;52.508;13.454;2022-07-23T10:59:20;20.60;99.10
6538;DHT22;3302;52.508;13.454;2022-07-23T11:01:45;20.40;99.40
6538;DHT22;3302;52.508;13.454;2022-07-23T11:04:11;20.60;99.30
6538;DHT22;3302;52.508;13.454;2022-07-23T11:14:58;20.80;98.30
6538;DHT22;3302;52.508;13.454;2022-07-23T11:17:25;21.00;98.00
6538;DHT22;3302;52.508;13.454;2022-07-23T11:22:40;21.50;96.30
6538;DHT22;3302;52.508;13.454;2022-07-23T11:25:28;21.50;96.20
6538;DHT22;3302;52.508;13.454;2022-07-23T11:27:54;21.50;95.30
6538;DHT22;3302;52.508;13.454;2022-07-23T11:32:54;21.70;95.20
6538;DHT22;3302;52.508;13.454;2022-07-23T11:35:42;21.80;94.90
6538;DHT22;3302;52.508;13.454;2022-07-23T11:38:15;22.00;94.20
6538;DHT22;3302;52.508;13.454;2022-07-23T11:40:43;22.00;94.10
6538;DHT22;3302;52.508;13.454;2022-07-23T11:43:10;21.90;93.70
6538;DHT22;3302;52.508;13.454;2022-07-23T11:45:46;21.50;94.20
6538;DHT22;3302;52.508;13.454;2022-07-23T11:48:19;21.30;94.20
6538;DHT22;3302;52.508;13.454;2022-07-23T11:50:46;21.40;93.90
6538;DHT22;3302;52.508;13.454;2022-07-23T11:53:12;21.40;94.20
6538;DHT22;3302;52.508;13.454;2022-07-23T11:55:38;21.80;94.00
6538;DHT22;3302;52.508;13.454;2022-07-23T11:58:04;21.60;93.20
6538;DHT22;3302;52.508;13.454;2022-07-23T12:00:31;21.70;93.60
6538;DHT22;3302;52.508;13.454;2022-07-23T12:03:00;22.00;93.10
6538;DHT22;3302;52.508;13.454;2022-07-23T12:05:32;22.00;92.80
6538;DHT22;3302;52.508;13.454;2022-07-23T12:07:59;21.90;93.00
6538;DHT22;3302;52.508;13.454;2022-07-23T12:10:28;22.20;92.90
6538;DHT22;3302;52.508;13.454;2022-07-23T12:13:05;21.90;92.80
6538;DHT22;3302;52.508;13.454;2022-07-23T12:15:34;21.90;93.40
6538;DHT22;3302;52.508;13.454;2022-07-23T12:18:03;21.90;93.30
6538;DHT22;3302;52.508;13.454;2022-07-23T12:20:38;22.20;92.80
6538;DHT22;3302;52.508;13.454;2022-07-23T12:23:06;22.30;93.00
6538;DHT22;3302;52.508;13.454;2022-07-23T12:25:34;22.10;91.60
6538;DHT22;3302;52.508;13.454;2022-07-23T12:30:58;22.20;92.00
6538;DHT22;3302;52.508;13.454;2022-07-23T12:33:39;22.10;92.60
6538;DHT22;3302;52.508;13.454;2022-07-23T12:36:07;22.40;92.00
6538;DHT22;3302;52.508;13.454;2022-07-23T12:38:47;22.50;91.50
6538;DHT22;3302;52.508;13.454;2022-07-23T12:41:14;22.70;91.20
6538;DHT22;3302;52.508;13.454;2022-07-23T12:43:45;22.50;91.00
6538;DHT22;3302;52.508;13.454;2022-07-23T12:46:16;22.20;91.50
6538;DHT22;3302;52.508;13.454;2022-07-23T12:51:19;22.30;90.50
6538;DHT22;3302;52.508;13.454;2022-07-23T12:53:47;22.50;90.60
6538;DHT22;3302;52.508;13.454;2022-07-23T12:56:15;22.40;90.50
6538;DHT22;3302;52.508;13.454;2022-07-23T13:04:06;22.30;90.40
6538;DHT22;3302;52.508;13.454;2022-07-23T13:06:37;22.50;90.10
6538;DHT22;3302;52.508;13.454;2022-07-23T13:09:05;23.00;89.00
6538;DHT22;3302;52.508;13.454;2022-07-23T13:11:31;23.20;87.60
6538;DHT22;3302;52.508;13.454;2022-07-23T13:13:57;23.00;85.30
6538;DHT22;3302;52.508;13.454;2022-07-23T13:16:23;22.60;86.90
6538;DHT22;3302;52.508;13.454;2022-07-23T13:18:49;22.70;87.30
6538;DHT22;3302;52.508;13.454;2022-07-23T13:21:15;22.50;86.70
6538;DHT22;3302;52.508;13.454;2022-07-23T13:23:42;22.50;87.50
6538;DHT22;3302;52.508;13.454;2022-07-23T13:26:07;22.30;88.40
6538;DHT22;3302;52.508;13.454;2022-07-23T13:28:33;22.40;88.60
6538;DHT22;3302;52.508;13.454;2022-07-23T13:30:59;22.60;88.70
6538;DHT22;3302;52.508;13.454;2022-07-23T13:33:25;22.70;86.80
6538;DHT22;3302;52.508;13.454;2022-07-23T13:35:53;22.50;87.40
6538;DHT22;3302;52.508;13.454;2022-07-23T13:38:19;22.60;87.40
6538;DHT22;3302;52.508;13.454;2022-07-23T13:40:47;22.50;87.90
6538;DHT22;3302;52.508;13.454;2022-07-23T13:43:16;22.60;88.10
6538;DHT22;3302;52.508;13.454;2022-07-23T13:45:43;22.70;86.50
6538;DHT22;3302;52.508;13.454;2022-07-23T13:48:10;22.70;86.00
6538;DHT22;3302;52.508;13.454;2022-07-23T13:50:37;22.70;84.80
6538;DHT22;3302;52.508;13.454;2022-07-23T13:53:10;22.70;83.90
6538;DHT22;3302;52.508;13.454;2022-07-23T13:55:37;22.80;85.40
6538;DHT22;3302;52.508;13.454;2022-07-23T13:58:04;22.90;85.10
6538;DHT22;3302;52.508;13.454;2022-07-23T14:00:31;22.80;84.10
6538;DHT22;3302;52.508;13.454;2022-07-23T14:02:58;22.80;84.10
6538;DHT22;3302;52.508;13.454;2022-07-23T14:05:24;22.80;83.80
6538;DHT22;3302;52.508;13.454;2022-07-23T14:07:50;22.90;83.50
6538;DHT22;3302;52.508;13.454;2022-07-23T14:10:18;22.90;83.70
6538;DHT22;3302;52.508;13.454;2022-07-23T14:12:45;23.00;83.20
6538;DHT22;3302;52.508;13.454;2022-07-23T14:15:11;22.90;82.90
6538;DHT22;3302;52.508;13.454;2022-07-23T14:17:39;22.90;82.60
6538;DHT22;3302;52.508;13.454;2022-07-23T14:20:06;22.90;83.90
6538;DHT22;3302;52.508;13.454;2022-07-23T14:22:32;22.90;85.10
6538;DHT22;3302;52.508;13.454;2022-07-23T14:24:58;22.80;83.90
6538;DHT22;3302;52.508;13.454;2022-07-23T14:27:25;23.10;84.30
6538;DHT22;3302;52.508;13.454;2022-07-23T14:29:51;23.30;80.50
6538;DHT22;3302;52.508;13.454;2022-07-23T14:32:18;23.40;79.30
6538;DHT22;3302;52.508;13.454;2022-07-23T14:34:43;23.80;78.70
6538;DHT22;3302;52.508;13.454;2022-07-23T14:37:10;23.90;76.70
6538;DHT22;3302;52.508;13.454;2022-07-23T14:39:38;24.10;75.80
6538;DHT22;3302;52.508;13.454;2022-07-23T14:42:05;24.20;72.60
6538;DHT22;3302;52.508;13.454;2022-07-23T14:44:30;23.80;72.70
6538;DHT22;3302;52.508;13.454;2022-07-23T14:46:56;23.70;73.50
6538;DHT22;3302;52.508;13.454;2022-07-23T14:49:22;23.80;73.30
6538;DHT22;3302;52.508;13.454;2022-07-23T14:51:48;23.60;72.40
6538;DHT22;3302;52.508;13.454;2022-07-23T14:54:14;23.60;74.70
6538;DHT22;3302;52.508;13.454;2022-07-23T14:56:41;23.80;73.60
6538;DHT22;3302;52.508;13.454;2022-07-23T14:59:07;23.80;73.70
6538;DHT22;3302;52.508;13.454;2022-07-23T15:01:34;23.80;73.30
6538;DHT22;3302;52.508;13.454;2022-07-23T15:04:00;24.00;71.50
6538;DHT22;3302;52.508;13.454;2022-07-23T15:06:26;23.70;72.10
6538;DHT22;3302;52.508;13.454;2022-07-23T15:08:52;23.50;72.70
6538;DHT22;3302;52.508;13.454;2022-07-23T15:11:18;23.50;73.90
6538;DHT22;3302;52.508;13.454;2022-07-23T15:13:44;23.40;73.00
6538;DHT22;3302;52.508;13.454;2022-07-23T15:16:09;23.30;73.40
6538;DHT22;3302;52.508;13.454;2022-07-23T15:18:35;23.60;72.70
6538;DHT22;3302;52.508;13.454;2022-07-23T15:21:02;24.10;71.10
6538;DHT22;3302;52.508;13.454;2022-07-23T15:23:28;24.30;68.90
6538;DHT22;3302;52.508;13.454;2022-07-23T15:25:55;24.50;68.70
6538;DHT22;3302;52.508;13.454;2022-07-23T15:28:21;24.70;68.20
6538;DHT22;3302;52.508;13.454;2022-07-23T15:30:48;25.00;67.30
6538;DHT22;3302;52.508;13.454;2022-07-23T15:33:14;25.20;65.20
6538;DHT22;3302;52.508;13.454;2022-07-23T15:35:40;25.20;63.60
6538;DHT22;3302;52.508;13.454;2022-07-23T15:38:06;25.20;63.00
6538;DHT22;3302;52.508;13.454;2022-07-23T15:40:32;25.20;62.40
6538;DHT22;3302;52.508;13.454;2022-07-23T15:42:57;25.10;62.60
6538;DHT22;3302;52.508;13.454;2022-07-23T15:45:23;25.40;61.90
6538;DHT22;3302;52.508;13.454;2022-07-23T15:47:49;25.30;62.00
6538;DHT22;3302;52.508;13.454;2022-07-23T15:50:15;25.40;60.40
6538;DHT22;3302;52.508;13.454;2022-07-23T15:52:41;25.60;58.90
6538;DHT22;3302;52.508;13.454;2022-07-23T15:55:07;25.60;59.90
6538;DHT22;3302;52.508;13.454;2022-07-23T15:57:33;25.40;59.80
6538;DHT22;3302;52.508;13.454;2022-07-23T15:59:59;25.40;59.60
6538;DHT22;3302;52.508;13.454;2022-07-23T16:02:25;25.20;58.50
6538;DHT22;3302;52.508;13.454;2022-07-23T16:04:51;25.00;58.70
6538;DHT22;3302;52.508;13.454;2022-07-23T16:07:19;25.20;57.60
6538;DHT22;3302;52.508;13.454;2022-07-23T16:09:45;25.10;57.50
6538;DHT22;3302;52.508;13.454;2022-07-23T16:12:11;25.10;57.50
6538;DHT22;3302;52.508;13.454;2022-07-23T16:14:37;24.80;57.20
6538;DHT22;3302;52.508;13.454;2022-07-23T16:17:03;24.60;58.00
6538;DHT22;3302;52.508;13.454;2022-07-23T16:19:29;24.80;57.60
6538;DHT22;3302;52.508;13.454;2022-07-23T16:21:54;24.90;57.70
6538;DHT22;3302;52.508;13.454;2022-07-23T16:24:20;24.80;57.60